sensor_id;sensor_type;location;lat;lon;timestamp;temperature;humidity
27004;DHT22;14546;47.590;19.022;2023-07-20T02:43:18;24.70;60.80
27004;DHT22;14546;47.590;19.022;2023-07-20T02:45:43;21.90;77.90
27004;DHT22;14546;47.590;19.022;2023-07-20T02:48:09;21.70;77.70
27004;DHT22;14546;47.590;19.022;2023-07-20T02:50:35;21.60;77.70
27004;DHT22;14546;47.590;19.022;2023-07-20T02:53:01;21.60;77.80
27004;DHT22;14546;47.590;19.022;2023-07-20T02:55:26;21.60;77.80
27004;DHT22;14546;47.590;19.022;2023-07-20T02:57:52;21.50;77.80
27004;DHT22;14546;47.590;19.022;2023-07-20T03:00:18;21.50;77.40
27004;DHT22;14546;47.590;19.022;2023-07-20T03:02:45;21.50;77.10
27004;DHT22;14546;47.590;19.022;2023-07-20T03:05:13;21.50;77.10
27004;DHT22;14546;47.590;19.022;2023-07-20T03:07:39;21.40;77.00
27004;DHT22;14546;47.590;19.022;2023-07-20T03:10:05;21.40;77.00
27004;DHT22;14546;47.590;19.022;2023-07-20T03:12:34;21.40;77.20
27004;DHT22;14546;47.590;19.022;2023-07-20T03:15:00;21.40;77.30
27004;DHT22;14546;47.590;19.022;2023-07-20T03:17:26;21.30;77.20
27004;DHT22;14546;47.590;19.022;2023-07-20T03:19:52;21.30;77.30
27004;DHT22;14546;47.590;19.022;2023-07-20T03:22:17;21.30;77.50
27004;DHT22;14546;47.590;19.022;2023-07-20T03:24:43;21.30;78.20
27004;DHT22;14546;47.590;19.022;2023-07-20T03:27:09;21.20;77.60
27004;DHT22;14546;47.590;19.022;2023-07-20T03:29:35;21.20;77.70
27004;DHT22;14546;47.590;19.022;2023-07-20T03:32:00;21.20;77.90
27004;DHT22;14546;47.590;19.022;2023-07-20T03:34:26;21.10;78.00
27004;DHT22;14546;47.590;19.022;2023-07-20T03:36:51;21.10;78.10
27004;DHT22;14546;47.590;19.022;2023-07-20T03:39:17;21.10;78.00
27004;DHT22;14546;47.590;19.022;2023-07-20T03:41:43;21.10;77.90
27004;DHT22;14546;47.590;19.022;2023-07-20T03:44:08;21.20;77.90
27004;DHT22;14546;47.590;19.022;2023-07-20T03:46:34;21.20;78.00
27004;DHT22;14546;47.590;19.022;2023-07-20T03:49:00;21.20;78.00
27004;DHT22;14546;47.590;19.022;2023-07-20T03:51:26;21.20;78.10
27004;DHT22;14546;47.590;19.022;2023-07-20T03:53:51;21.20;78.10
27004;DHT22;14546;47.590;19.022;2023-07-20T03:56:18;21.20;78.30
27004;DHT22;14546;47.590;19.022;2023-07-20T03:58:43;21.30;78.50
27004;DHT22;14546;47.590;19.022;2023-07-20T04:01:09;21.30;78.50
27004;DHT22;14546;47.590;19.022;2023-07-20T04:03:35;21.30;78.50
27004;DHT22;14546;47.590;19.022;2023-07-20T04:06:01;21.30;78.60
27004;DHT22;14546;47.590;19.022;2023-07-20T04:08:27;21.30;78.80
27004;DHT22;14546;47.590;19.022;2023-07-20T04:10:53;21.30;78.90
27004;DHT22;14546;47.590;19.022;2023-07-20T04:13:18;21.30;79.70
27004;DHT22;14546;47.590;19.022;2023-07-20T04:15:44;21.30;79.10
27004;DHT22;14546;47.590;19.022;2023-07-20T04:18:10;21.30;79.00
27004;DHT22;14546;47.590;19.022;2023-07-20T04:20:36;21.30;78.60
27004;DHT22;14546;47.590;19.022;2023-07-20T04:23:01;21.30;78.40
27004;DHT22;14546;47.590;19.022;2023-07-20T04:25:27;21.30;78.30
27004;DHT22;14546;47.590;19.022;2023-07-20T04:27:53;21.30;78.20
27004;DHT22;14546;47.590;19.022;2023-07-20T04:30:19;21.30;78.20
27004;DHT22;14546;47.590;19.022;2023-07-20T04:32:48;21.30;78.00
27004;DHT22;14546;47.590;19.022;2023-07-20T04:35:45;21.30;78.10
27004;DHT22;14546;47.590;19.022;2023-07-20T04:38:04;21.30;78.10
27004;DHT22;14546;47.590;19.022;2023-07-20T04:40:29;21.30;77.80
27004;DHT22;14546;47.590;19.022;2023-07-20T04:42:55;21.40;77.60
27004;DHT22;14546;47.590;19.022;2023-07-20T04:45:20;21.40;77.40
27004;DHT22;14546;47.590;19.022;2023-07-20T04:47:48;21.50;77.10
27004;DHT22;14546;47.590;19.022;2023-07-20T04:50:16;21.50;76.70
27004;DHT22;14546;47.590;19.022;2023-07-20T04:52:42;21.60;76.60
27004;DHT22;14546;47.590;19.022;2023-07-20T04:55:07;21.70;76.00
27004;DHT22;14546;47.590;19.022;2023-07-20T04:57:34;21.80;75.00
27004;DHT22;14546;47.590;19.022;2023-07-20T05:00:00;21.90;74.40
27004;DHT22;14546;47.590;19.022;2023-07-20T05:02:25;22.00;73.80
27004;DHT22;14546;47.590;19.022;2023-07-20T05:04:51;22.20;73.10
27004;DHT22;14546;47.590;19.022;2023-07-20T05:07:16;22.20;72.40
27004;DHT22;14546;47.590;19.022;2023-07-20T05:09:42;22.30;71.60
27004;DHT22;14546;47.590;19.022;2023-07-20T05:12:08;22.40;71.90
27004;DHT22;14546;47.590;19.022;2023-07-20T05:14:33;22.40;70.70
27004;DHT22;14546;47.590;19.022;2023-07-20T05:16:59;22.40;70.30
27004;DHT22;14546;47.590;19.022;2023-07-20T05:19:25;22.50;70.30
27004;DHT22;14546;47.590;19.022;2023-07-20T05:21:51;22.50;70.20
27004;DHT22;14546;47.590;19.022;2023-07-20T05:24:16;22.60;70.10
27004;DHT22;14546;47.590;19.022;2023-07-20T05:26:42;22.60;69.90
27004;DHT22;14546;47.590;19.022;2023-07-20T05:29:08;22.60;69.50
27004;DHT22;14546;47.590;19.022;2023-07-20T05:31:33;22.70;69.30
27004;DHT22;14546;47.590;19.022;2023-07-20T05:33:59;22.70;69.00
27004;DHT22;14546;47.590;19.022;2023-07-20T05:36:25;22.80;68.60
27004;DHT22;14546;47.590;19.022;2023-07-20T05:38:50;22.80;68.10
27004;DHT22;14546;47.590;19.022;2023-07-20T05:41:16;22.80;68.00
27004;DHT22;14546;47.590;19.022;2023-07-20T05:43:42;22.80;67.90
27004;DHT22;14546;47.590;19.022;2023-07-20T05:46:07;22.90;67.70
27004;DHT22;14546;47.590;19.022;2023-07-20T05:48:33;22.90;67.50
27004;DHT22;14546;47.590;19.022;2023-07-20T05:50:59;23.00;67.40
27004;DHT22;14546;47.590;19.022;2023-07-20T05:53:24;23.00;66.90
27004;DHT22;14546;47.590;19.022;2023-07-20T05:55:59;23.10;66.50
27004;DHT22;14546;47.590;19.022;2023-07-20T05:58:24;23.20;66.10
27004;DHT22;14546;47.590;19.022;2023-07-20T06:00:50;23.20;65.70
27004;DHT22;14546;47.590;19.022;2023-07-20T06:03:16;23.20;65.10
27004;DHT22;14546;47.590;19.022;2023-07-20T06:05:43;23.30;64.70
27004;DHT22;14546;47.590;19.022;2023-07-20T06:08:08;23.30;64.60
27004;DHT22;14546;47.590;19.022;2023-07-20T06:10:34;23.30;64.70
27004;DHT22;14546;47.590;19.022;2023-07-20T06:13:00;23.30;65.30
27004;DHT22;14546;47.590;19.022;2023-07-20T06:15:27;23.40;64.60
27004;DHT22;14546;47.590;19.022;2023-07-20T06:17:54;23.40;64.00
27004;DHT22;14546;47.590;19.022;2023-07-20T06:20:22;23.50;64.20
27004;DHT22;14546;47.590;19.022;2023-07-20T06:22:48;23.50;63.90
27004;DHT22;14546;47.590;19.022;2023-07-20T06:25:13;23.50;64.10
27004;DHT22;14546;47.590;19.022;2023-07-20T06:27:39;23.50;64.10
27004;DHT22;14546;47.590;19.022;2023-07-20T06:30:05;23.60;63.90
27004;DHT22;14546;47.590;19.022;2023-07-20T06:32:31;23.60;64.00
27004;DHT22;14546;47.590;19.022;2023-07-20T06:34:56;23.60;64.10
27004;DHT22;14546;47.590;19.022;2023-07-20T06:37:22;23.70;64.20
27004;DHT22;14546;47.590;19.022;2023-07-20T06:39:48;23.70;64.10
27004;DHT22;14546;47.590;19.022;2023-07-20T06:42:14;23.70;63.90
27004;DHT22;14546;47.590;19.022;2023-07-20T06:44:39;23.80;64.00
27004;DHT22;14546;47.590;19.022;2023-07-20T06:47:05;23.80;63.80
27004;DHT22;14546;47.590;19.022;2023-07-20T06:49:31;23.80;63.50
27004;DHT22;14546;47.590;19.022;2023-07-20T06:51:56;23.90;63.50
27004;DHT22;14546;47.590;19.022;2023-07-20T06:54:22;23.90;63.00
27004;DHT22;14546;47.590;19.022;2023-07-20T06:56:48;23.90;62.90
27004;DHT22;14546;47.590;19.022;2023-07-20T06:59:14;24.00;63.10
27004;DHT22;14546;47.590;19.022;2023-07-20T07:01:39;24.00;63.10
27004;DHT22;14546;47.590;19.022;2023-07-20T07:04:05;24.10;62.90
27004;DHT22;14546;47.590;19.022;2023-07-20T07:33:24;24.10;62.80
27004;DHT22;14546;47.590;19.022;2023-07-20T07:35:53;24.90;59.20
27004;DHT22;14546;47.590;19.022;2023-07-20T07:38:19;25.00;58.50
27004;DHT22;14546;47.590;19.022;2023-07-20T07:40:45;25.10;57.90
27004;DHT22;14546;47.590;19.022;2023-07-20T07:43:11;25.20;57.30
27004;DHT22;14546;47.590;19.022;2023-07-20T07:45:38;25.30;56.70
27004;DHT22;14546;47.590;19.022;2023-07-20T07:48:08;25.40;56.10
27004;DHT22;14546;47.590;19.022;2023-07-20T07:50:36;25.50;55.20
27004;DHT22;14546;47.590;19.022;2023-07-20T07:53:02;25.60;55.20
27004;DHT22;14546;47.590;19.022;2023-07-20T07:55:28;25.70;54.70
27004;DHT22;14546;47.590;19.022;2023-07-20T07:57:54;25.80;54.40
27004;DHT22;14546;47.590;19.022;2023-07-20T08:00:20;25.90;54.00
27004;DHT22;14546;47.590;19.022;2023-07-20T08:02:46;26.00;54.00
27004;DHT22;14546;47.590;19.022;2023-07-20T08:05:13;26.10;53.10
27004;DHT22;14546;47.590;19.022;2023-07-20T08:07:41;26.10;52.90
27004;DHT22;14546;47.590;19.022;2023-07-20T08:10:08;26.10;52.50
27004;DHT22;14546;47.590;19.022;2023-07-20T08:12:34;26.10;52.60
27004;DHT22;14546;47.590;19.022;2023-07-20T08:14:59;26.10;52.80
27004;DHT22;14546;47.590;19.022;2023-07-20T08:17:25;26.10;53.00
27004;DHT22;14546;47.590;19.022;2023-07-20T08:19:51;26.10;53.00
27004;DHT22;14546;47.590;19.022;2023-07-20T08:22:17;26.20;52.70
27004;DHT22;14546;47.590;19.022;2023-07-20T08:24:43;26.10;52.50
27004;DHT22;14546;47.590;19.022;2023-07-20T08:27:09;26.10;52.40
27004;DHT22;14546;47.590;19.022;2023-07-20T08:29:36;26.10;52.50
27004;DHT22;14546;47.590;19.022;2023-07-20T08:32:02;26.10;52.70
27004;DHT22;14546;47.590;19.022;2023-07-20T08:34:29;26.10;53.20
27004;DHT22;14546;47.590;19.022;2023-07-20T08:36:55;26.10;52.40
27004;DHT22;14546;47.590;19.022;2023-07-20T08:39:21;26.10;51.60
27004;DHT22;14546;47.590;19.022;2023-07-20T08:41:48;26.10;50.80
27004;DHT22;14546;47.590;19.022;2023-07-20T08:44:14;26.00;50.20
27004;DHT22;14546;47.590;19.022;2023-07-20T08:46:41;26.10;50.80
27004;DHT22;14546;47.590;19.022;2023-07-20T08:49:08;26.10;50.30
27004;DHT22;14546;47.590;19.022;2023-07-20T08:51:35;26.10;50.30
27004;DHT22;14546;47.590;19.022;2023-07-20T08:54:02;26.10;50.10
27004;DHT22;14546;47.590;19.022;2023-07-20T08:56:27;26.10;49.70
27004;DHT22;14546;47.590;19.022;2023-07-20T08:58:56;26.00;49.80
27004;DHT22;14546;47.590;19.022;2023-07-20T09:01:22;26.00;50.10
27004;DHT22;14546;47.590;19.022;2023-07-20T09:03:49;25.90;50.20
27004;DHT22;14546;47.590;19.022;2023-07-20T09:06:15;25.80;50.10
27004;DHT22;14546;47.590;19.022;2023-07-20T09:08:41;25.80;50.40
27004;DHT22;14546;47.590;19.022;2023-07-20T09:11:12;25.70;50.70
27004;DHT22;14546;47.590;19.022;2023-07-20T09:13:41;25.60;50.90
27004;DHT22;14546;47.590;19.022;2023-07-20T09:16:06;25.60;50.80
27004;DHT22;14546;47.590;19.022;2023-07-20T09:18:32;25.60;51.20
27004;DHT22;14546;47.590;19.022;2023-07-20T09:21:03;25.50;51.10
27004;DHT22;14546;47.590;19.022;2023-07-20T09:23:37;25.50;51.20
27004;DHT22;14546;47.590;19.022;2023-07-20T09:26:12;25.50;51.30
27004;DHT22;14546;47.590;19.022;2023-07-20T09:28:54;25.50;51.30
27004;DHT22;14546;47.590;19.022;2023-07-20T09:31:22;25.60;51.00
27004;DHT22;14546;47.590;19.022;2023-07-20T09:33:48;25.60;50.60
27004;DHT22;14546;47.590;19.022;2023-07-20T09:36:14;25.60;50.50
27004;DHT22;14546;47.590;19.022;2023-07-20T09:38:41;25.70;50.20
27004;DHT22;14546;47.590;19.022;2023-07-20T09:41:08;25.70;49.80
27004;DHT22;14546;47.590;19.022;2023-07-20T09:43:34;25.70;49.90
27004;DHT22;14546;47.590;19.022;2023-07-20T09:46:00;25.70;50.10
27004;DHT22;14546;47.590;19.022;2023-07-20T09:48:26;25.80;50.10
27004;DHT22;14546;47.590;19.022;2023-07-20T09:50:53;25.80;50.30
27004;DHT22;14546;47.590;19.022;2023-07-20T09:53:19;25.80;50.20
27004;DHT22;14546;47.590;19.022;2023-07-20T09:55:46;25.80;50.40
27004;DHT22;14546;47.590;19.022;2023-07-20T09:58:16;25.90;50.60
27004;DHT22;14546;47.590;19.022;2023-07-20T10:00:42;26.00;50.60
27004;DHT22;14546;47.590;19.022;2023-07-20T10:03:20;26.10;50.60
27004;DHT22;14546;47.590;19.022;2023-07-20T10:05:51;26.10;50.50
27004;DHT22;14546;47.590;19.022;2023-07-20T10:08:19;26.20;50.40
27004;DHT22;14546;47.590;19.022;2023-07-20T10:10:47;26.30;50.40
27004;DHT22;14546;47.590;19.022;2023-07-20T10:13:26;26.30;50.10
27004;DHT22;14546;47.590;19.022;2023-07-20T10:16:03;26.40;49.70
27004;DHT22;14546;47.590;19.022;2023-07-20T10:18:50;26.40;49.80
27004;DHT22;14546;47.590;19.022;2023-07-20T10:21:21;26.40;49.70
27004;DHT22;14546;47.590;19.022;2023-07-20T10:23:48;26.50;49.80
27004;DHT22;14546;47.590;19.022;2023-07-20T10:26:14;26.40;49.60
27004;DHT22;14546;47.590;19.022;2023-07-20T10:28:40;26.50;50.00
27004;DHT22;14546;47.590;19.022;2023-07-20T10:31:08;26.50;50.20
27004;DHT22;14546;47.590;19.022;2023-07-20T10:33:35;26.60;50.00
27004;DHT22;14546;47.590;19.022;2023-07-20T10:36:02;26.80;48.40
27004;DHT22;14546;47.590;19.022;2023-07-20T10:41:39;27.40;47.50
27004;DHT22;14546;47.590;19.022;2023-07-20T10:44:07;27.70;46.60
27004;DHT22;14546;47.590;19.022;2023-07-20T10:49:07;28.00;45.50
27004;DHT22;14546;47.590;19.022;2023-07-20T11:06:37;28.20;45.20
27004;DHT22;14546;47.590;19.022;2023-07-20T11:09:11;28.50;43.80
27004;DHT22;14546;47.590;19.022;2023-07-20T11:11:44;28.30;43.50
27004;DHT22;14546;47.590;19.022;2023-07-20T11:14:24;28.20;44.00
27004;DHT22;14546;47.590;19.022;2023-07-20T11:16:51;28.30;44.90
27004;DHT22;14546;47.590;19.022;2023-07-20T11:31:42;28.50;45.10
27004;DHT22;14546;47.590;19.022;2023-07-20T11:34:12;29.80;42.70
27004;DHT22;14546;47.590;19.022;2023-07-20T11:36:42;30.00;43.10
27004;DHT22;14546;47.590;19.022;2023-07-20T11:39:16;30.20;42.40
27004;DHT22;14546;47.590;19.022;2023-07-20T11:41:50;30.40;42.10
27004;DHT22;14546;47.590;19.022;2023-07-20T15:00:18;35.20;31.70
27004;DHT22;14546;47.590;19.022;2023-07-20T15:10:04;34.70;29.40
27004;DHT22;14546;47.590;19.022;2023-07-20T15:15:05;33.70;30.30
27004;DHT22;14546;47.590;19.022;2023-07-20T15:17:31;33.40;29.90
27004;DHT22;14546;47.590;19.022;2023-07-20T15:19:57;33.20;29.90
27004;DHT22;14546;47.590;19.022;2023-07-20T15:24:49;33.10;29.90
27004;DHT22;14546;47.590;19.022;2023-07-20T15:29:41;32.70;30.10
27004;DHT22;14546;47.590;19.022;2023-07-20T15:32:07;32.60;30.60
27004;DHT22;14546;47.590;19.022;2023-07-20T16:03:57;32.50;31.10
27004;DHT22;14546;47.590;19.022;2023-07-20T16:13:42;31.80;32.90
27004;DHT22;14546;47.590;19.022;2023-07-20T16:16:10;31.20;33.60
27004;DHT22;14546;47.590;19.022;2023-07-20T16:18:36;31.00;33.70
27004;DHT22;14546;47.590;19.022;2023-07-20T16:21:02;30.70;33.90
27004;DHT22;14546;47.590;19.022;2023-07-20T16:23:29;30.70;34.40
27004;DHT22;14546;47.590;19.022;2023-07-20T16:25:54;30.50;34.60
27004;DHT22;14546;47.590;19.022;2023-07-20T16:28:20;30.50;34.70
27004;DHT22;14546;47.590;19.022;2023-07-20T16:30:46;30.50;34.80
27004;DHT22;14546;47.590;19.022;2023-07-20T16:33:11;30.40;34.90
27004;DHT22;14546;47.590;19.022;2023-07-20T16:35:38;30.40;34.90
27004;DHT22;14546;47.590;19.022;2023-07-20T16:38:04;30.40;35.80
27004;DHT22;14546;47.590;19.022;2023-07-20T16:40:29;30.40;35.50
27004;DHT22;14546;47.590;19.022;2023-07-20T16:42:55;30.40;35.40
27004;DHT22;14546;47.590;19.022;2023-07-20T16:45:21;30.30;35.40
27004;DHT22;14546;47.590;19.022;2023-07-20T16:47:46;30.30;35.30
27004;DHT22;14546;47.590;19.022;2023-07-20T16:50:12;30.20;35.60
27004;DHT22;14546;47.590;19.022;2023-07-20T16:52:39;30.10;35.80
27004;DHT22;14546;47.590;19.022;2023-07-20T16:55:05;30.10;35.90
27004;DHT22;14546;47.590;19.022;2023-07-20T16:57:30;29.90;36.10
27004;DHT22;14546;47.590;19.022;2023-07-20T16:59:56;29.80;36.30
27004;DHT22;14546;47.590;19.022;2023-07-20T17:02:22;29.70;36.40
27004;DHT22;14546;47.590;19.022;2023-07-20T17:04:48;29.60;36.60
27004;DHT22;14546;47.590;19.022;2023-07-20T17:07:14;29.40;36.80
27004;DHT22;14546;47.590;19.022;2023-07-20T17:09:40;29.40;37.10
27004;DHT22;14546;47.590;19.022;2023-07-20T17:12:07;29.40;37.50
27004;DHT22;14546;47.590;19.022;2023-07-20T17:14:33;29.30;37.70
27004;DHT22;14546;47.590;19.022;2023-07-20T17:17:00;29.40;38.10
27004;DHT22;14546;47.590;19.022;2023-07-20T17:19:25;29.40;38.40
27004;DHT22;14546;47.590;19.022;2023-07-20T17:21:51;29.30;38.20
27004;DHT22;14546;47.590;19.022;2023-07-20T17:24:16;29.20;38.00
27004;DHT22;14546;47.590;19.022;2023-07-20T17:26:43;29.10;38.30
27004;DHT22;14546;47.590;19.022;2023-07-20T17:29:09;29.00;38.60
27004;DHT22;14546;47.590;19.022;2023-07-20T17:31:34;28.80;38.70
27004;DHT22;14546;47.590;19.022;2023-07-20T17:34:01;28.70;39.00
27004;DHT22;14546;47.590;19.022;2023-07-20T17:36:27;28.60;39.40
27004;DHT22;14546;47.590;19.022;2023-07-20T17:38:54;28.50;39.70
27004;DHT22;14546;47.590;19.022;2023-07-20T17:41:20;28.40;39.90
27004;DHT22;14546;47.590;19.022;2023-07-20T17:43:45;28.30;40.10
27004;DHT22;14546;47.590;19.022;2023-07-20T17:46:11;28.20;40.30
27004;DHT22;14546;47.590;19.022;2023-07-20T17:48:37;28.10;40.50
27004;DHT22;14546;47.590;19.022;2023-07-20T17:51:03;28.00;40.80
27004;DHT22;14546;47.590;19.022;2023-07-20T17:53:28;28.00;41.00
27004;DHT22;14546;47.590;19.022;2023-07-20T17:55:55;27.90;41.50
27004;DHT22;14546;47.590;19.022;2023-07-20T17:58:21;27.80;41.80
27004;DHT22;14546;47.590;19.022;2023-07-20T18:00:47;27.70;42.20
27004;DHT22;14546;47.590;19.022;2023-07-20T18:03:12;27.60;42.50
27004;DHT22;14546;47.590;19.022;2023-07-20T18:05:39;27.60;43.00
27004;DHT22;14546;47.590;19.022;2023-07-20T18:08:04;27.50;43.50
27004;DHT22;14546;47.590;19.022;2023-07-20T18:10:30;27.50;43.90
27004;DHT22;14546;47.590;19.022;2023-07-20T18:12:56;27.40;44.40
27004;DHT22;14546;47.590;19.022;2023-07-20T18:15:23;27.30;44.90
27004;DHT22;14546;47.590;19.022;2023-07-20T18:17:49;27.20;45.20
27004;DHT22;14546;47.590;19.022;2023-07-20T18:20:15;27.20;45.60
27004;DHT22;14546;47.590;19.022;2023-07-20T18:22:41;27.00;45.70
27004;DHT22;14546;47.590;19.022;2023-07-20T18:25:07;26.90;46.00
27004;DHT22;14546;47.590;19.022;2023-07-20T18:27:33;26.80;46.30
27004;DHT22;14546;47.590;19.022;2023-07-20T18:30:00;26.70;46.70
27004;DHT22;14546;47.590;19.022;2023-07-20T18:32:26;26.50;47.00
27004;DHT22;14546;47.590;19.022;2023-07-20T18:34:52;26.30;47.60
27004;DHT22;14546;47.590;19.022;2023-07-20T18:37:20;26.30;48.00
27004;DHT22;14546;47.590;19.022;2023-07-20T18:39:46;26.10;48.40
27004;DHT22;14546;47.590;19.022;2023-07-20T18:42:13;25.90;48.90
27004;DHT22;14546;47.590;19.022;2023-07-20T18:47:06;25.70;52.00
27004;DHT22;14546;47.590;19.022;2023-07-20T18:49:32;25.60;70.90
27004;DHT22;14546;47.590;19.022;2023-07-20T18:51:58;25.40;57.30
27004;DHT22;14546;47.590;19.022;2023-07-20T18:54:24;25.20;63.90
27004;DHT22;14546;47.590;19.022;2023-07-20T18:56:50;25.20;52.80
27004;DHT22;14546;47.590;19.022;2023-07-20T18:59:17;25.10;56.90
27004;DHT22;14546;47.590;19.022;2023-07-20T19:01:43;25.10;78.00
27004;DHT22;14546;47.590;19.022;2023-07-20T19:04:10;24.80;65.50
27004;DHT22;14546;47.590;19.022;2023-07-20T19:06:36;24.80;67.20
27004;DHT22;14546;47.590;19.022;2023-07-20T19:09:02;24.50;49.80
27004;DHT22;14546;47.590;19.022;2023-07-20T19:11:30;24.50;50.70
27004;DHT22;14546;47.590;19.022;2023-07-20T19:13:55;24.40;50.70
27004;DHT22;14546;47.590;19.022;2023-07-20T19:16:22;24.30;51.00
27004;DHT22;14546;47.590;19.022;2023-07-20T19:18:49;24.30;51.20
27004;DHT22;14546;47.590;19.022;2023-07-20T19:21:16;24.10;51.10
27004;DHT22;14546;47.590;19.022;2023-07-20T19:23:42;24.10;51.40
27004;DHT22;14546;47.590;19.022;2023-07-20T19:26:09;24.00;51.50
27004;DHT22;14546;47.590;19.022;2023-07-20T19:28:37;23.90;51.80
27004;DHT22;14546;47.590;19.022;2023-07-20T19:31:04;23.80;52.20
27004;DHT22;14546;47.590;19.022;2023-07-20T19:33:32;23.70;52.40
27004;DHT22;14546;47.590;19.022;2023-07-20T19:36:00;23.60;52.60
27004;DHT22;14546;47.590;19.022;2023-07-20T19:38:26;23.50;52.70
27004;DHT22;14546;47.590;19.022;2023-07-20T19:40:54;23.40;52.80
27004;DHT22;14546;47.590;19.022;2023-07-20T19:43:21;23.40;53.00
27004;DHT22;14546;47.590;19.022;2023-07-20T19:45:51;23.30;53.10
27004;DHT22;14546;47.590;19.022;2023-07-20T19:48:18;23.20;53.00
27004;DHT22;14546;47.590;19.022;2023-07-20T19:50:48;23.20;53.00
27004;DHT22;14546;47.590;19.022;2023-07-20T19:53:18;23.20;53.10
27004;DHT22;14546;47.590;19.022;2023-07-20T19:55:45;23.10;53.00
27004;DHT22;14546;47.590;19.022;2023-07-20T19:58:12;23.10;53.20
27004;DHT22;14546;47.590;19.022;2023-07-20T20:00:42;23.10;53.50
27004;DHT22;14546;47.590;19.022;2023-07-20T20:03:09;23.00;53.80
27004;DHT22;14546;47.590;19.022;2023-07-20T20:05:35;23.00;53.70
27004;DHT22;14546;47.590;19.022;2023-07-20T20:08:06;22.90;53.70
27004;DHT22;14546;47.590;19.022;2023-07-20T20:10:33;22.90;53.90
27004;DHT22;14546;47.590;19.022;2023-07-20T20:13:00;22.80;54.20
27004;DHT22;14546;47.590;19.022;2023-07-20T20:15:26;22.70;54.30
27004;DHT22;14546;47.590;19.022;2023-07-20T20:17:55;22.70;54.50
27004;DHT22;14546;47.590;19.022;2023-07-20T20:20:23;22.60;54.60
27004;DHT22;14546;47.590;19.022;2023-07-20T20:22:49;22.60;55.00
27004;DHT22;14546;47.590;19.022;2023-07-20T20:25:15;22.50;55.20
27004;DHT22;14546;47.590;19.022;2023-07-20T20:27:42;22.50;56.30
27004;DHT22;14546;47.590;19.022;2023-07-20T20:30:09;22.50;56.50
27004;DHT22;14546;47.590;19.022;2023-07-20T20:32:36;22.30;55.60
27004;DHT22;14546;47.590;19.022;2023-07-20T20:35:08;22.20;55.60
27004;DHT22;14546;47.590;19.022;2023-07-20T20:37:35;22.20;55.70
27004;DHT22;14546;47.590;19.022;2023-07-20T20:40:02;22.00;56.00
27004;DHT22;14546;47.590;19.022;2023-07-20T20:42:28;22.00;56.20
27004;DHT22;14546;47.590;19.022;2023-07-20T20:44:54;22.00;56.40
27004;DHT22;14546;47.590;19.022;2023-07-20T20:47:21;21.90;56.50
27004;DHT22;14546;47.590;19.022;2023-07-20T20:49:46;21.80;56.60
27004;DHT22;14546;47.590;19.022;2023-07-20T20:52:13;21.80;56.80
27004;DHT22;14546;47.590;19.022;2023-07-20T20:54:39;21.70;57.00
27004;DHT22;14546;47.590;19.022;2023-07-20T20:57:05;21.60;57.10
27004;DHT22;14546;47.590;19.022;2023-07-20T20:59:31;21.60;57.20
27004;DHT22;14546;47.590;19.022;2023-07-20T21:01:57;21.50;57.20
27004;DHT22;14546;47.590;19.022;2023-07-20T21:04:26;21.50;57.30
27004;DHT22;14546;47.590;19.022;2023-07-20T21:06:51;21.40;57.40
27004;DHT22;14546;47.590;19.022;2023-07-20T21:09:17;21.40;57.50
27004;DHT22;14546;47.590;19.022;2023-07-20T21:11:43;21.30;57.70
27004;DHT22;14546;47.590;19.022;2023-07-20T21:14:09;21.30;57.70
27004;DHT22;14546;47.590;19.022;2023-07-20T21:16:35;21.20;57.70
27004;DHT22;14546;47.590;19.022;2023-07-20T21:19:01;21.20;57.80
27004;DHT22;14546;47.590;19.022;2023-07-20T21:21:27;21.10;58.00
27004;DHT22;14546;47.590;19.022;2023-07-20T21:23:53;21.00;58.10
27004;DHT22;14546;47.590;19.022;2023-07-20T21:26:19;21.00;58.20
27004;DHT22;14546;47.590;19.022;2023-07-20T21:28:45;20.90;58.30
27004;DHT22;14546;47.590;19.022;2023-07-20T21:31:11;20.90;58.50
27004;DHT22;14546;47.590;19.022;2023-07-20T21:33:38;20.80;58.60
27004;DHT22;14546;47.590;19.022;2023-07-20T21:36:05;20.70;58.70
27004;DHT22;14546;47.590;19.022;2023-07-20T21:38:31;20.70;58.80
27004;DHT22;14546;47.590;19.022;2023-07-20T21:40:59;20.60;58.80
27004;DHT22;14546;47.590;19.022;2023-07-20T21:43:25;20.60;59.00
27004;DHT22;14546;47.590;19.022;2023-07-20T21:45:50;20.60;59.20
27004;DHT22;14546;47.590;19.022;2023-07-20T21:48:16;20.50;59.20
27004;DHT22;14546;47.590;19.022;2023-07-20T21:50:47;20.40;59.30
27004;DHT22;14546;47.590;19.022;2023-07-20T21:53:13;20.40;59.50
27004;DHT22;14546;47.590;19.022;2023-07-20T21:55:39;20.40;59.60
27004;DHT22;14546;47.590;19.022;2023-07-20T21:58:05;20.40;59.70
27004;DHT22;14546;47.590;19.022;2023-07-20T22:00:30;20.30;59.80
27004;DHT22;14546;47.590;19.022;2023-07-20T22:02:56;20.30;59.90
27004;DHT22;14546;47.590;19.022;2023-07-20T22:05:22;20.30;60.10
27004;DHT22;14546;47.590;19.022;2023-07-20T22:07:48;20.30;60.10
27004;DHT22;14546;47.590;19.022;2023-07-20T22:10:13;20.20;60.20
27004;DHT22;14546;47.590;19.022;2023-07-20T22:12:39;20.10;60.20
27004;DHT22;14546;47.590;19.022;2023-07-20T22:15:05;20.10;60.40
27004;DHT22;14546;47.590;19.022;2023-07-20T22:17:35;20.10;60.60
27004;DHT22;14546;47.590;19.022;2023-07-20T22:20:01;20.10;60.90
27004;DHT22;14546;47.590;19.022;2023-07-20T22:22:28;20.00;60.90
27004;DHT22;14546;47.590;19.022;2023-07-20T22:24:54;20.00;61.00
27004;DHT22;14546;47.590;19.022;2023-07-20T22:27:19;20.00;61.20
27004;DHT22;14546;47.590;19.022;2023-07-20T22:29:45;19.90;61.20
27004;DHT22;14546;47.590;19.022;2023-07-20T22:32:11;19.90;61.40
27004;DHT22;14546;47.590;19.022;2023-07-20T22:34:36;19.90;61.60
27004;DHT22;14546;47.590;19.022;2023-07-20T22:37:03;19.90;61.60
27004;DHT22;14546;47.590;19.022;2023-07-20T22:39:32;19.90;61.60
27004;DHT22;14546;47.590;19.022;2023-07-20T22:42:02;19.90;61.60
27004;DHT22;14546;47.590;19.022;2023-07-20T22:44:28;19.80;61.60
27004;DHT22;14546;47.590;19.022;2023-07-20T22:46:54;19.80;61.70
27004;DHT22;14546;47.590;19.022;2023-07-20T22:49:20;19.80;61.80
27004;DHT22;14546;47.590;19.022;2023-07-20T22:51:46;19.80;61.90
27004;DHT22;14546;47.590;19.022;2023-07-20T22:54:12;19.70;61.90
27004;DHT22;14546;47.590;19.022;2023-07-20T22:56:37;19.70;62.00
27004;DHT22;14546;47.590;19.022;2023-07-20T22:59:04;19.60;61.90
27004;DHT22;14546;47.590;19.022;2023-07-20T23:01:30;19.70;61.90
27004;DHT22;14546;47.590;19.022;2023-07-20T23:03:56;19.60;61.90